Time;durP1;ratioP1;P1;durP2;ratioP2;P2;SDS_P1;SDS_P2;PMS_P1;PMS_P2;Temp;Humidity;BMP_temperature;BMP_pressure;BME280_temperature;BME280_humidity;BME280_pressure;Samples;Min_cycle;Max_cycle;Signal;HPM_P1;HPM_P2
2023/11/24 00:00:39;;;;;;;6.97;3.00;;;;;;;7.92;100.00;100343.22;6051574;28;20237;-70
2023/11/24 00:04:00;;;;;;;12.30;4.67;;;;;;;8.03;100.00;100350.34;6051321;28;20271;-69
2023/11/24 00:07:22;;;;;;;7.17;4.60;;;;;;;8.04;100.00;100355.56;6047760;28;20727;-69
2023/11/24 00:10:43;;;;;;;8.47;3.20;;;;;;;8.07;100.00;100366.03;6047299;28;20245;-70
2023/11/24 00:14:04;;;;;;;9.03;5.00;;;;;;;7.96;100.00;100365.25;6052573;28;20832;-70
2023/11/24 00:17:25;;;;;;;7.33;3.33;;;;;;;7.80;100.00;100384.50;6048331;28;20255;-71
2023/11/24 00:20:49;;;;;;;7.83;3.30;;;;;;;7.64;100.00;100410.06;6029867;28;20340;-71
2023/11/24 00:24:11;;;;;;;5.53;2.40;;;;;;;7.40;100.00;100402.25;6048951;28;20243;-71
2023/11/24 00:27:32;;;;;;;5.53;2.27;;;;;;;7.14;100.00;100384.78;6045782;28;20256;-71
2023/11/24 00:30:54;;;;;;;3.00;2.57;;;;;;;6.90;100.00;100387.69;6043058;28;20233;-70
2023/11/24 00:34:15;;;;;;;5.67;2.83;;;;;;;6.75;100.00;100380.88;6049798;28;20240;-70
2023/11/24 00:37:36;;;;;;;4.40;1.63;;;;;;;6.64;100.00;100378.19;6050952;28;20237;-71
2023/11/24 00:40:58;;;;;;;5.13;1.90;;;;;;;6.58;100.00;100388.56;6052826;28;20308;-69
2023/11/24 00:44:19;;;;;;;5.57;1.60;;;;;;;6.55;100.00;100373.56;6047781;28;20253;-71
2023/11/24 00:47:42;;;;;;;2.67;1.90;;;;;;;6.55;100.00;100392.31;6116076;28;20242;-71
2023/11/24 00:51:03;;;;;;;3.53;1.93;;;;;;;6.46;100.00;100387.72;6049591;28;20249;-71
2023/11/24 00:54:24;;;;;;;4.47;1.73;;;;;;;6.43;100.00;100372.75;6047085;28;20265;-70
2023/11/24 00:57:46;;;;;;;3.10;1.77;;;;;;;6.41;100.00;100374.69;6039103;28;20245;-71
2023/11/24 01:01:09;;;;;;;2.50;1.57;;;;;;;6.42;100.00;100357.63;6051693;28;20249;-69
2023/11/24 01:04:30;;;;;;;2.53;1.87;;;;;;;6.45;100.00;100360.09;6044105;28;20241;-70
2023/11/24 01:07:51;;;;;;;1.83;1.27;;;;;;;6.45;100.00;100357.41;6051646;28;20749;-70
2023/11/24 01:11:12;;;;;;;5.33;1.43;;;;;;;6.57;100.00;100360.09;6037130;28;20245;-70
2023/11/24 01:14:34;;;;;;;2.63;1.63;;;;;;;6.63;100.00;100381.00;6050693;28;20255;-70
2023/11/24 01:17:56;;;;;;;3.60;1.53;;;;;;;6.61;100.00;100367.75;6046850;28;20349;-70
2023/11/24 01:21:18;;;;;;;3.17;1.17;;;;;;;6.61;100.00;100362.41;6049374;28;20721;-72
2023/11/24 01:24:39;;;;;;;2.50;1.60;;;;;;;6.34;100.00;100354.72;6063338;28;20240;-71
2023/11/24 01:28:01;;;;;;;2.70;0.80;;;;;;;6.48;100.00;100393.81;6043889;28;20260;-71
2023/11/24 01:31:23;;;;;;;3.20;1.30;;;;;;;6.64;100.00;100401.44;6046942;28;20816;-71
2023/11/24 01:34:44;;;;;;;3.17;1.77;;;;;;;6.53;100.00;100388.91;6051419;28;20469;-71
2023/11/24 01:38:05;;;;;;;3.23;1.90;;;;;;;6.53;100.00;100396.13;6047730;28;20245;-71
2023/11/24 01:41:26;;;;;;;3.47;1.33;;;;;;;6.42;100.00;100375.56;6046939;28;20554;-70
2023/11/24 01:44:47;;;;;;;1.60;0.90;;;;;;;6.35;100.00;100375.19;6116848;28;20245;-70
2023/11/24 01:48:10;;;;;;;2.73;1.33;;;;;;;6.31;100.00;100375.53;6039442;28;20241;-70
2023/11/24 01:51:33;;;;;;;2.60;1.10;;;;;;;6.27;100.00;100372.28;6049115;28;21097;-70
2023/11/24 01:54:54;;;;;;;1.87;1.57;;;;;;;6.20;100.00;100371.03;6049961;28;20242;-71
2023/11/24 01:58:16;;;;;;;3.93;1.40;;;;;;;6.18;100.00;100377.47;6048736;28;20273;-70
2023/11/24 02:01:37;;;;;;;2.83;1.40;;;;;;;6.18;100.00;100372.13;6043589;28;20245;-71
2023/11/24 02:05:01;;;;;;;2.50;1.47;;;;;;;6.20;100.00;100381.75;6048205;28;20245;-69
2023/11/24 02:08:23;;;;;;;4.20;1.80;;;;;;;6.31;100.00;100367.50;6050515;28;20245;-70
2023/11/24 02:11:44;;;;;;;1.33;0.97;;;;;;;6.21;100.00;100372.75;6052507;28;21037;-71
2023/11/24 02:15:08;;;;;;;2.87;1.83;;;;;;;6.14;100.00;100358.16;6048488;28;20270;-71
2023/11/24 02:18:29;;;;;;;6.40;1.10;;;;;;;6.07;100.00;100346.22;6044924;28;20316;-71
2023/11/24 02:21:51;;;;;;;2.73;1.57;;;;;;;6.06;100.00;100344.53;6043003;28;20241;-70
2023/11/24 02:25:15;;;;;;;1.87;1.53;;;;;;;6.02;100.00;100340.38;6035171;28;20283;-71
2023/11/24 02:28:37;;;;;;;3.07;1.73;;;;;;;6.06;100.00;100341.00;6038024;28;20237;-70
2023/11/24 02:31:58;;;;;;;1.40;1.10;;;;;;;6.11;100.00;100353.03;6104531;28;22272;-71
2023/11/24 02:35:20;;;;;;;4.93;1.60;;;;;;;6.12;100.00;100365.44;6039836;28;22533;-70
2023/11/24 02:38:44;;;;;;;5.40;1.40;;;;;;;6.12;100.00;100349.38;6013432;28;20229;-69
2023/11/24 02:42:07;;;;;;;1.83;1.10;;;;;;;6.11;100.00;100352.19;6041262;28;20237;-70
2023/11/24 02:45:28;;;;;;;1.43;1.00;;;;;;;6.09;100.00;100340.75;6037570;28;20239;-70
2023/11/24 02:48:49;;;;;;;2.37;1.00;;;;;;;6.04;100.00;100342.94;6033198;28;20276;-70
2023/11/24 02:52:10;;;;;;;2.67;1.60;;;;;;;5.97;100.00;100342.56;6041426;28;20245;-70
2023/11/24 02:55:31;;;;;;;1.37;0.73;;;;;;;5.95;100.00;100340.97;6050224;28;21953;-70
2023/11/24 02:58:53;;;;;;;2.77;1.03;;;;;;;5.98;100.00;100354.97;6047355;28;20241;-70
2023/11/24 03:02:14;;;;;;;2.90;1.20;;;;;;;6.04;100.00;100361.66;6050501;28;20272;-70
2023/11/24 03:05:35;;;;;;;6.97;2.43;;;;;;;6.10;100.00;100372.75;6049685;28;20336;-70
2023/11/24 03:08:57;;;;;;;16.57;3.17;;;;;;;6.05;100.00;100360.72;6047304;28;20698;-70
2023/11/24 03:12:19;;;;;;;5.53;2.50;;;;;;;5.95;100.00;100359.69;6037606;28;20308;-70
2023/11/24 03:15:42;;;;;;;8.20;1.53;;;;;;;5.95;100.00;100349.84;6044597;28;20245;-71
2023/11/24 03:19:04;;;;;;;3.53;1.97;;;;;;;5.91;100.00;100337.69;6047138;28;20619;-71
2023/11/24 03:22:25;;;;;;;7.33;2.40;;;;;;;5.85;100.00;100318.59;6053977;28;20241;-70
2023/11/24 03:25:46;;;;;;;6.73;2.67;;;;;;;5.90;100.00;100321.78;6056494;28;20234;-70
2023/11/24 03:29:07;;;;;;;13.17;3.43;;;;;;;5.85;100.00;100319.47;6055503;28;20229;-71
2023/11/24 03:32:29;;;;;;;3.97;1.60;;;;;;;5.90;100.00;100319.09;6050539;28;20241;-71
2023/11/24 03:35:50;;;;;;;10.30;4.07;;;;;;;5.96;100.00;100329.31;6050554;28;20581;-70
2023/11/24 03:39:13;;;;;;;2.97;2.00;;;;;;;5.91;100.00;100344.84;6051672;28;20245;-71
2023/11/24 03:42:34;;;;;;;5.97;3.50;;;;;;;5.90;100.00;100356.53;6062023;28;20241;-70
2023/11/24 03:45:56;;;;;;;3.33;2.03;;;;;;;5.92;100.00;100347.44;6052745;28;20249;-70
2023/11/24 03:49:18;;;;;;;7.07;3.03;;;;;;;5.73;100.00;100344.44;6052799;28;20237;-71
2023/11/24 03:52:39;;;;;;;3.37;2.43;;;;;;;5.78;100.00;100331.56;6053122;28;20355;-70
2023/11/24 03:56:01;;;;;;;3.87;2.77;;;;;;;5.84;100.00;100335.63;6120150;28;20607;-71
2023/11/24 03:59:22;;;;;;;3.03;1.73;;;;;;;5.81;100.00;100317.97;6052243;28;20233;-71
2023/11/24 04:02:44;;;;;;;7.27;3.30;;;;;;;5.74;100.00;100298.00;6050062;28;20245;-71
2023/11/24 04:06:07;;;;;;;4.63;2.30;;;;;;;5.66;100.00;100289.72;6050799;28;20245;-70
2023/11/24 04:09:28;;;;;;;4.63;2.10;;;;;;;5.57;100.00;100301.13;6056819;28;20606;-70
2023/11/24 04:12:49;;;;;;;6.83;2.33;;;;;;;5.63;100.00;100296.16;6042940;28;20759;-70
2023/11/24 05:00:36;;;;;;;12.10;3.03;;;;;;;5.30;100.00;100256.00;6058649;23;20344;-71
2023/11/24 05:03:59;;;;;;;4.13;3.20;;;;;;;5.28;100.00;100265.09;6039199;28;20525;-70
2023/11/24 05:07:21;;;;;;;3.70;2.37;;;;;;;5.36;100.00;100279.59;6027535;28;20235;-71
2023/11/24 05:10:42;;;;;;;4.40;1.90;;;;;;;5.50;100.00;100273.19;6025177;28;20317;-71
2023/11/24 05:14:03;;;;;;;3.67;2.07;;;;;;;5.56;100.00;100278.06;6028577;28;20274;-71
2023/11/24 05:17:25;;;;;;;8.47;2.73;;;;;;;5.64;100.00;100278.31;6035324;28;20508;-70
2023/11/24 05:20:46;;;;;;;3.93;2.43;;;;;;;5.69;100.00;100265.44;6035325;28;20243;-71
2023/11/24 05:24:08;;;;;;;4.33;2.37;;;;;;;5.74;100.00;100243.69;6035886;28;22294;-69
2023/11/24 05:27:29;;;;;;;5.20;1.80;;;;;;;5.65;100.00;100234.56;6033970;28;20235;-71
2023/11/24 05:30:53;;;;;;;9.77;2.60;;;;;;;5.55;100.00;100244.25;6033217;28;20235;-70
2023/11/24 05:34:16;;;;;;;4.50;2.60;;;;;;;5.52;100.00;100239.19;6020192;28;20239;-71
2023/11/24 05:37:37;;;;;;;5.63;2.37;;;;;;;5.53;100.00;100247.06;6033371;28;20254;-70
2023/11/24 05:40:58;;;;;;;10.63;2.50;;;;;;;5.53;100.00;100247.06;6036035;28;20688;-70
2023/11/24 05:44:19;;;;;;;5.33;1.80;;;;;;;5.51;100.00;100253.50;6027519;28;20260;-70
2023/11/24 05:47:40;;;;;;;5.70;2.83;;;;;;;5.58;100.00;100252.06;6025920;28;22736;-70
2023/11/24 05:51:02;;;;;;;8.43;3.33;;;;;;;5.56;100.00;100248.66;6027878;28;20244;-70
2023/11/24 05:54:23;;;;;;;5.00;1.83;;;;;;;5.57;100.00;100247.66;6037309;28;20511;-69
2023/11/24 05:57:44;;;;;;;4.63;2.23;;;;;;;5.51;100.00;100237.47;6012129;28;20251;-70
2023/11/24 06:01:05;;;;;;;5.10;2.77;;;;;;;5.43;100.00;100234.53;6022547;28;20242;-70
2023/11/24 06:04:26;;;;;;;5.57;2.50;;;;;;;5.49;100.00;100220.69;6033172;28;20242;-70
2023/11/24 06:07:48;;;;;;;3.13;2.40;;;;;;;5.43;100.00;100218.50;6028568;28;20238;-70
2023/11/24 06:11:09;;;;;;;5.67;2.73;;;;;;;5.50;100.00;100222.41;6023622;28;20254;-71
2023/11/24 06:14:29;;;;;;;7.87;2.87;;;;;;;5.58;100.00;100219.97;6042634;28;20576;-70
2023/11/24 06:17:50;;;;;;;10.03;2.00;;;;;;;5.55;100.00;100214.84;6035979;28;20239;-70
2023/11/24 06:21:12;;;;;;;3.60;1.47;;;;;;;5.41;100.00;100215.97;6030639;28;20238;-70
2023/11/24 06:24:34;;;;;;;6.87;1.97;;;;;;;5.49;100.00;100221.56;6041105;28;20242;-71
2023/11/24 06:27:55;;;;;;;3.77;2.50;;;;;;;5.56;100.00;100203.22;6042688;28;20235;-70
2023/11/24 06:31:16;;;;;;;1.97;1.70;;;;;;;7.14;100.00;100210.59;6043036;28;20321;-70
2023/11/24 06:34:37;;;;;;;2.57;2.37;;;;;;;7.01;100.00;100217.97;6038646;28;20830;-73
2023/11/24 06:37:59;;;;;;;3.30;1.70;;;;;;;6.71;100.00;100218.72;6036629;28;20689;-72
2023/11/24 06:41:21;;;;;;;9.10;2.37;;;;;;;6.65;100.00;100218.38;6051994;28;20238;-68
2023/11/24 06:44:42;;;;;;;4.80;1.57;;;;;;;6.60;100.00;100231.28;6044871;28;20243;-69
2023/11/24 06:48:05;;;;;;;5.70;3.17;;;;;;;6.21;100.00;100222.03;6036161;28;20269;-69
2023/11/24 06:51:26;;;;;;;6.07;1.80;;;;;;;6.29;100.00;100216.91;6035522;28;20239;-69
2023/11/24 06:54:47;;;;;;;5.23;2.53;;;;;;;6.41;100.00;100200.69;6036804;28;20243;-70
2023/11/24 06:58:09;;;;;;;4.00;1.30;;;;;;;6.20;100.00;100206.94;6044989;28;20247;-71
2023/11/24 07:01:31;;;;;;;1.63;1.10;;;;;;;6.07;100.00;100203.59;6044009;28;20633;-69
2023/11/24 07:04:52;;;;;;;2.37;1.03;;;;;;;6.38;100.00;100200.09;6039433;28;20334;-69
2023/11/24 07:08:16;;;;;;;1.90;1.47;;;;;;;5.98;100.00;100207.00;6040208;28;20235;-69
2023/11/24 07:11:38;;;;;;;1.17;1.00;;;;;;;6.08;100.00;100200.78;6034643;28;20326;-68
2023/11/24 07:15:03;;;;;;;2.40;1.43;;;;;;;6.00;100.00;100192.53;6028732;28;20267;-68
2023/11/24 07:18:24;;;;;;;2.43;1.93;;;;;;;5.39;100.00;100193.84;6035712;28;22622;-71
2023/11/24 07:21:45;;;;;;;2.67;1.17;;;;;;;4.95;100.00;100201.78;6023344;28;20263;-71
2023/11/24 07:25:07;;;;;;;1.33;1.23;;;;;;;4.67;100.00;100207.53;6031787;28;20250;-74
2023/11/24 07:28:28;;;;;;;2.40;1.20;;;;;;;4.70;100.00;100204.59;6028240;28;20243;-72
2023/11/24 07:31:50;;;;;;;2.40;1.10;;;;;;;4.73;100.00;100202.56;6027709;28;20238;-72
2023/11/24 07:35:13;;;;;;;2.27;1.33;;;;;;;4.90;100.00;100184.41;6033631;28;20239;-69
2023/11/24 07:38:34;;;;;;;2.97;1.47;;;;;;;4.83;100.00;100170.69;6032122;28;20302;-69
2023/11/24 07:41:55;;;;;;;6.80;1.90;;;;;;;4.72;100.00;100166.16;6035144;28;20242;-69
2023/11/24 07:45:16;;;;;;;5.57;2.13;;;;;;;4.77;100.00;100158.66;6029476;28;21034;-72
2023/11/24 07:48:38;;;;;;;4.63;2.10;;;;;;;4.76;100.00;100162.28;6037156;28;20235;-71
2023/11/24 07:52:00;;;;;;;4.17;1.77;;;;;;;4.95;100.00;100171.53;6053457;28;20268;-68
2023/11/24 07:55:22;;;;;;;2.87;1.40;;;;;;;5.07;100.00;100173.28;6042258;28;20345;-69
2023/11/24 07:58:43;;;;;;;6.03;2.70;;;;;;;5.11;100.00;100169.41;6044034;28;20586;-68
2023/11/24 08:02:04;;;;;;;3.33;1.63;;;;;;;5.03;100.00;100159.31;6040483;28;20231;-71
2023/11/24 08:05:26;;;;;;;1.97;1.63;;;;;;;4.76;100.00;100164.94;6043932;28;20235;-72
2023/11/24 08:08:47;;;;;;;1.37;1.20;;;;;;;4.97;100.00;100174.94;6032664;28;20799;-70
2023/11/24 08:12:08;;;;;;;3.37;1.90;;;;;;;5.21;100.00;100163.22;6041897;28;20243;-74
2023/11/24 08:15:29;;;;;;;4.20;3.00;;;;;;;5.50;100.00;100155.59;6039728;28;20227;-71
2023/11/24 08:18:51;;;;;;;4.10;1.93;;;;;;;6.55;100.00;100151.34;6038239;28;20599;-70
2023/11/24 08:22:13;;;;;;;3.33;1.70;;;;;;;7.70;100.00;100152.03;6023416;28;20238;-71
2023/11/24 08:25:35;;;;;;;2.10;1.83;;;;;;;6.15;100.00;100127.03;6038435;28;20242;-68
2023/11/24 08:28:56;;;;;;;5.33;1.43;;;;;;;5.72;100.00;100136.84;6048882;28;20834;-69
2023/11/24 08:32:17;;;;;;;3.50;1.20;;;;;;;5.54;100.00;100124.97;6046701;28;20243;-70
2023/11/24 08:35:39;;;;;;;1.90;1.33;;;;;;;5.60;100.00;100127.13;6054481;28;20270;-70
2023/11/24 08:39:03;;;;;;;2.20;1.60;;;;;;;5.66;100.00;100129.31;6043443;28;20280;-73
2023/11/24 08:42:24;;;;;;;5.53;2.07;;;;;;;5.93;100.00;100113.75;6036085;28;20243;-70
2023/11/24 08:45:46;;;;;;;8.57;3.50;;;;;;;9.26;100.00;100103.47;6025694;28;20243;-70
2023/11/24 08:49:08;;;;;;;6.63;1.50;;;;;;;8.01;100.00;100103.53;6033497;28;20247;-69
2023/11/24 08:52:29;;;;;;;3.53;1.90;;;;;;;7.78;100.00;100102.06;6040822;28;20267;-68
2023/11/24 08:55:55;;;;;;;3.63;2.17;;;;;;;7.08;100.00;100109.28;6032096;28;20247;-70
2023/11/24 08:59:16;;;;;;;7.83;2.90;;;;;;;8.88;100.00;100103.56;6001158;28;20249;-70
2023/11/24 09:02:37;;;;;;;3.50;1.53;;;;;;;6.61;100.00;100099.13;6012903;28;20239;-71
2023/11/24 09:05:58;;;;;;;4.90;2.03;;;;;;;5.78;100.00;100098.91;6042517;28;20254;-70
2023/11/24 09:09:19;;;;;;;4.13;3.43;;;;;;;5.61;100.00;100105.63;6047773;28;20338;-69
2023/11/24 09:12:41;;;;;;;4.30;2.27;;;;;;;5.74;100.00;100110.81;6040707;28;20243;-69
2023/11/24 09:16:03;;;;;;;3.73;1.90;;;;;;;5.91;100.00;100102.31;6041547;28;20544;-72
2023/11/24 09:19:24;;;;;;;9.83;4.60;;;;;;;5.64;100.00;100091.16;6039021;28;20243;-71
2023/11/24 09:22:45;;;;;;;5.63;2.03;;;;;;;5.56;100.00;100072.22;6043309;28;20231;-73
2023/11/24 09:26:07;;;;;;;5.37;1.77;;;;;;;6.21;100.00;100064.16;6046521;28;20580;-71
2023/11/24 09:29:30;;;;;;;6.33;2.77;;;;;;;10.97;100.00;100047.50;6043586;28;20247;-71
2023/11/24 09:32:54;;;;;;;3.80;2.07;;;;;;;9.74;100.00;100035.97;6037432;28;20242;-70
2023/11/24 09:36:15;;;;;;;3.60;2.13;;;;;;;7.67;100.00;100051.25;6040721;28;20632;-70
2023/11/24 09:39:38;;;;;;;3.20;2.30;;;;;;;6.82;100.00;100046.41;6048189;28;20273;-70
2023/11/24 09:43:03;;;;;;;4.67;1.97;;;;;;;5.97;100.00;100040.28;6044028;28;20555;-70
2023/11/24 09:46:26;;;;;;;3.70;2.47;;;;;;;7.48;100.00;100023.50;6019531;28;20631;-70
2023/11/24 09:49:47;;;;;;;4.43;2.37;;;;;;;9.71;100.00;100012.88;6018333;28;20250;-70
2023/11/24 09:53:15;;;;;;;5.93;2.10;;;;;;;12.82;100.00;100010.19;6044895;28;21414;-70
2023/11/24 09:56:36;;;;;;;4.57;1.60;;;;;;;11.78;100.00;100032.59;6054051;28;20234;-70
2023/11/24 09:59:57;;;;;;;1.53;1.23;;;;;;;8.51;100.00;100030.94;6033530;28;20340;-69
2023/11/24 10:03:24;;;;;;;2.90;1.20;;;;;;;7.25;100.00;100028.25;6053579;28;20680;-70
2023/11/24 10:06:45;;;;;;;6.40;2.33;;;;;;;6.52;100.00;100030.28;6050731;28;20325;-72
2023/11/24 10:10:07;;;;;;;4.87;1.73;;;;;;;6.29;100.00;100006.34;6038041;28;20242;-70
2023/11/24 10:13:29;;;;;;;5.33;2.27;;;;;;;6.38;100.00;100007.38;6045323;28;20666;-70
2023/11/24 10:16:50;;;;;;;4.17;2.17;;;;;;;8.50;100.00;99989.81;6012985;28;20645;-70
2023/11/24 10:20:18;;;;;;;5.03;2.20;;;;;;;12.14;100.00;99976.41;6024960;28;20243;-69
2023/11/24 10:23:40;;;;;;;4.40;1.93;;;;;;;9.13;100.00;99979.25;6034571;28;20749;-71
2023/11/24 10:27:20;;;;;;;4.57;2.47;;;;;;;7.75;100.00;99975.41;6022945;28;20636;-71
2023/11/24 10:30:41;;;;;;;4.30;2.30;;;;;;;6.79;100.00;99983.22;6038065;28;20239;-69
2023/11/24 10:34:04;;;;;;;2.47;2.10;;;;;;;6.27;100.00;99965.47;6036325;28;20249;-70
2023/11/24 10:37:28;;;;;;;5.60;1.53;;;;;;;6.01;100.00;99977.53;6038644;28;20242;-71
2023/11/24 10:40:50;;;;;;;7.40;2.67;;;;;;;6.00;100.00;99953.59;6022728;28;20266;-69
2023/11/24 10:44:12;;;;;;;8.00;2.43;;;;;;;6.08;100.00;99937.72;6029027;28;20241;-70
2023/11/24 10:47:38;;;;;;;4.77;2.27;;;;;;;6.17;100.00;99935.13;6038210;28;20798;-70
2023/11/24 10:51:04;;;;;;;4.20;1.43;;;;;;;8.24;100.00;99912.69;6042500;28;20243;-69
2023/11/24 10:54:34;;;;;;;2.47;1.83;;;;;;;11.07;100.00;99913.41;6031162;28;20254;-69
2023/11/24 10:57:55;;;;;;;2.03;1.07;;;;;;;14.18;100.00;99896.75;6041755;28;20239;-70
2023/11/24 11:01:17;;;;;;;4.23;2.33;;;;;;;13.02;100.00;99894.28;6028315;28;20362;-69
2023/11/24 11:04:42;;;;;;;4.00;1.30;;;;;;;9.98;100.00;99880.91;6044800;28;20250;-71
2023/11/24 11:08:17;;;;;;;7.10;1.97;;;;;;;8.39;100.00;99882.53;6039837;28;20270;-70
2023/11/24 11:11:56;;;;;;;2.63;1.40;;;;;;;7.48;100.00;99897.50;6049654;28;20561;-71
2023/11/24 11:15:23;;;;;;;1.33;1.20;;;;;;;6.96;100.00;99909.41;6042031;28;20235;-71
2023/11/24 11:18:44;;;;;;;1.73;0.97;;;;;;;6.70;100.00;99916.22;6043085;28;20314;-69
2023/11/24 11:22:07;;;;;;;2.50;1.30;;;;;;;6.55;100.00;99907.69;6053279;28;21254;-69
2023/11/24 11:25:42;;;;;;;5.40;1.43;;;;;;;6.36;100.00;99918.34;6044371;28;20238;-68
2023/11/24 11:29:05;;;;;;;3.17;1.57;;;;;;;6.54;100.00;99918.56;6058267;28;20291;-72
2023/11/24 11:32:27;;;;;;;2.40;0.90;;;;;;;7.17;100.00;99894.09;6046700;28;20243;-70
2023/11/24 11:35:51;;;;;;;1.83;1.57;;;;;;;6.85;100.00;99880.03;6051853;28;20243;-72
2023/11/24 11:39:17;;;;;;;3.50;2.27;;;;;;;8.73;100.00;99869.41;6039074;28;20320;-73
2023/11/24 11:42:53;;;;;;;1.73;1.33;;;;;;;14.21;100.00;99842.16;6043857;28;20351;-70
2023/11/24 11:46:15;;;;;;;1.17;0.83;;;;;;;16.57;81.10;99851.13;6036755;28;20258;-68
2023/11/24 11:49:37;;;;;;;1.10;1.10;;;;;;;11.41;94.40;99845.84;6045372;28;20625;-68
2023/11/24 11:53:00;;;;;;;1.27;1.10;;;;;;;8.95;100.00;99855.53;6045056;28;20625;-68
2023/11/24 11:56:23;;;;;;;2.13;0.73;;;;;;;8.03;100.00;99870.75;6037733;28;20271;-69
2023/11/24 11:59:46;;;;;;;0.50;0.50;;;;;;;7.44;100.00;99861.22;6051673;28;20242;-70
2023/11/24 12:03:10;;;;;;;1.00;0.90;;;;;;;6.91;100.00;99858.06;6046878;28;20247;-71
2023/11/24 12:06:31;;;;;;;1.70;0.77;;;;;;;6.52;100.00;99872.31;6045430;28;20246;-70
2023/11/24 12:09:51;;;;;;;2.57;1.00;;;;;;;6.41;100.00;99866.09;6049207;28;20230;-69
2023/11/24 12:13:13;;;;;;;2.50;1.10;;;;;;;6.27;100.00;99853.09;6044060;28;20246;-71
2023/11/24 12:16:34;;;;;;;3.67;1.13;;;;;;;6.14;100.00;99847.09;6045868;28;20239;-72
2023/11/24 12:19:57;;;;;;;2.70;1.00;;;;;;;6.03;100.00;99827.63;6052786;28;20249;-71
2023/11/24 12:23:20;;;;;;;1.83;1.30;;;;;;;6.04;100.00;99829.31;6045013;28;20242;-71
2023/11/24 12:26:44;;;;;;;1.97;1.00;;;;;;;6.07;100.00;99821.03;6044908;28;20239;-71
2023/11/24 12:30:08;;;;;;;0.77;0.77;;;;;;;6.05;100.00;99815.78;6049293;28;20243;-71
2023/11/24 12:33:29;;;;;;;4.07;1.70;;;;;;;6.15;100.00;99807.81;6049023;28;20235;-71
2023/11/24 12:36:53;;;;;;;1.53;1.00;;;;;;;6.18;100.00;99807.53;6040845;28;20267;-71
2023/11/24 12:40:21;;;;;;;1.80;0.90;;;;;;;6.17;100.00;99797.81;6061252;28;20246;-71
2023/11/24 12:43:42;;;;;;;2.03;1.17;;;;;;;5.94;100.00;99807.88;6046668;28;20613;-71
2023/11/24 12:47:13;;;;;;;2.00;1.80;;;;;;;5.75;100.00;99813.06;6048035;28;20755;-71
2023/11/24 12:50:35;;;;;;;3.63;1.30;;;;;;;5.35;100.00;99798.72;6022329;28;20259;-72
2023/11/24 12:53:57;;;;;;;1.53;1.10;;;;;;;5.27;100.00;99782.50;6050405;28;20258;-71
2023/11/24 12:57:18;;;;;;;1.77;1.27;;;;;;;4.98;100.00;99782.28;6045347;28;20238;-72
2023/11/24 13:00:39;;;;;;;5.27;1.83;;;;;;;5.22;100.00;99777.53;6048732;28;20247;-70
2023/11/24 13:04:00;;;;;;;5.57;2.40;;;;;;;5.07;100.00;99784.16;6052454;28;20266;-71
2023/11/24 13:07:21;;;;;;;3.33;2.00;;;;;;;5.16;100.00;99777.22;6037315;28;20250;-71
2023/11/24 13:10:47;;;;;;;1.60;1.20;;;;;;;5.19;100.00;99760.94;6045178;28;20242;-72
2023/11/24 13:14:10;;;;;;;3.13;1.93;;;;;;;5.34;100.00;99749.78;6046189;28;20251;-71
2023/11/24 13:17:32;;;;;;;2.57;1.47;;;;;;;5.42;100.00;99751.81;6035410;28;20239;-72
2023/11/24 13:20:54;;;;;;;4.60;1.60;;;;;;;5.48;100.00;99744.13;6039325;28;20250;-72
2023/11/24 13:24:14;;;;;;;2.90;1.97;;;;;;;5.11;100.00;99734.03;6039770;28;20239;-72
2023/11/24 13:27:37;;;;;;;2.47;1.23;;;;;;;5.63;100.00;99723.25;6035863;28;20253;-73
2023/11/24 13:30:59;;;;;;;2.13;1.40;;;;;;;5.70;100.00;99727.06;6051691;28;20597;-73
2023/11/24 13:34:20;;;;;;;6.13;2.37;;;;;;;5.78;100.00;99723.72;6039883;28;20239;-73
2023/11/24 13:37:42;;;;;;;11.93;2.60;;;;;;;5.89;100.00;99707.59;6046743;28;20623;-74
2023/11/24 13:41:04;;;;;;;8.00;2.97;;;;;;;5.82;100.00;99704.59;6048714;28;20254;-73
2023/11/24 13:44:26;;;;;;;3.23;1.47;;;;;;;5.55;100.00;99693.63;6039713;28;20242;-73
2023/11/24 13:47:47;;;;;;;11.87;2.77;;;;;;;5.55;100.00;99680.28;6045779;28;20242;-73
2023/11/24 13:51:08;;;;;;;2.93;1.97;;;;;;;5.76;100.00;99667.69;6039843;28;20231;-72
2023/11/24 13:54:30;;;;;;;2.63;1.60;;;;;;;5.78;100.00;99662.22;6052191;28;20234;-73
2023/11/24 13:57:51;;;;;;;5.80;2.30;;;;;;;5.63;100.00;99677.78;6049658;28;20536;-73
2023/11/24 14:01:15;;;;;;;3.17;1.50;;;;;;;5.67;100.00;99681.91;6037290;28;20265;-73
2023/11/24 14:04:37;;;;;;;7.70;2.07;;;;;;;5.50;100.00;99687.84;6044541;28;20346;-73
2023/11/24 14:07:58;;;;;;;5.97;2.93;;;;;;;5.41;100.00;99672.63;6044313;28;20598;-72
2023/11/24 14:11:20;;;;;;;6.07;2.43;;;;;;;5.35;100.00;99684.69;6039552;28;20668;-73
2023/11/24 14:14:41;;;;;;;1.60;0.93;;;;;;;5.49;100.00;99667.44;6047802;28;20242;-73
2023/11/24 14:18:06;;;;;;;5.30;2.40;;;;;;;5.27;100.00;99679.16;6044650;28;20238;-73
2023/11/24 14:21:28;;;;;;;2.90;1.20;;;;;;;5.45;100.00;99663.34;6036095;28;20239;-73
2023/11/24 14:24:48;;;;;;;6.97;2.57;;;;;;;5.55;100.00;99683.78;6047726;28;20771;-74
2023/11/24 14:28:09;;;;;;;9.13;1.97;;;;;;;5.55;100.00;99675.78;6046213;28;20257;-73
2023/11/24 14:31:30;;;;;;;5.67;2.37;;;;;;;5.44;100.00;99673.22;6043717;28;20246;-73
2023/11/24 14:34:52;;;;;;;3.40;1.77;;;;;;;5.36;100.00;99666.84;6044653;28;20243;-73
2023/11/24 14:38:13;;;;;;;4.97;1.30;;;;;;;5.29;100.00;99666.53;6031938;28;20245;-72
2023/11/24 14:41:34;;;;;;;2.73;1.40;;;;;;;5.38;100.00;99659.53;6045054;28;20234;-70
2023/11/24 14:44:55;;;;;;;8.83;2.73;;;;;;;5.31;100.00;99661.03;6057011;28;20254;-70
2023/11/24 14:49:20;;;;;;;5.63;2.90;;;;;;;5.41;100.00;99665.44;6040698;28;20243;-71
2023/11/24 14:52:57;;;;;;;5.80;2.33;;;;;;;5.40;100.00;99668.25;5995929;29;20246;-73
2023/11/24 15:34:28;;;;;;;4.43;2.03;;;;;;;4.58;100.00;99611.28;6389091;23;20690;-70
2023/11/24 15:37:51;;;;;;;4.30;1.50;;;;;;;4.63;100.00;99610.88;6149120;23;20704;-70
2023/11/24 15:41:47;;;;;;;3.67;2.23;;;;;;;4.55;100.00;99605.31;5998765;28;20240;-72
2023/11/24 16:39:55;;;;;;;4.40;1.40;;;;;;;4.39;100.00;99578.25;6182979;23;20265;-71
2023/11/24 16:43:17;;;;;;;1.73;1.63;;;;;;;4.42;100.00;99576.16;6131152;28;20243;-72
2023/11/24 16:46:37;;;;;;;3.50;1.77;;;;;;;4.47;100.00;99576.63;6142263;28;20246;-73
2023/11/24 16:49:59;;;;;;;4.47;1.70;;;;;;;4.43;100.00;99585.88;6142143;28;20282;-73
2023/11/24 16:53:20;;;;;;;3.37;2.10;;;;;;;4.49;100.00;99587.16;6143852;28;20328;-72
2023/11/24 16:56:43;;;;;;;3.27;2.00;;;;;;;4.52;100.00;99597.59;6138432;28;20234;-71
2023/11/24 17:00:05;;;;;;;2.67;1.33;;;;;;;4.52;100.00;99611.78;6132119;28;20234;-71
2023/11/24 17:03:26;;;;;;;2.83;1.37;;;;;;;4.42;100.00;99610.84;6126291;28;20235;-71
2023/11/24 17:06:49;;;;;;;4.23;2.07;;;;;;;4.44;100.00;99608.06;6133037;28;20700;-71
2023/11/24 17:10:10;;;;;;;2.50;1.87;;;;;;;4.42;100.00;99618.03;6120051;28;20242;-71
2023/11/24 17:13:32;;;;;;;2.07;1.20;;;;;;;4.40;100.00;99611.97;6132348;28;20604;-71
2023/11/24 17:16:53;;;;;;;2.87;2.43;;;;;;;4.38;100.00;99628.09;6143477;28;20237;-70
2023/11/24 17:20:14;;;;;;;5.93;3.00;;;;;;;4.33;100.00;99635.63;6161539;28;20234;-71
2023/11/24 17:23:40;;;;;;;4.80;2.30;;;;;;;4.34;100.00;99649.84;6153546;28;20737;-70
2023/11/24 17:27:00;;;;;;;3.90;2.17;;;;;;;4.32;100.00;99660.59;6161379;28;20997;-71
2023/11/24 17:30:24;;;;;;;3.67;2.10;;;;;;;4.32;100.00;99678.44;6165854;28;20246;-70
2023/11/24 17:33:45;;;;;;;4.50;2.47;;;;;;;4.30;100.00;99677.72;6167059;28;20239;-71
2023/11/24 17:37:06;;;;;;;3.70;1.90;;;;;;;4.34;100.00;99688.00;6166558;28;20237;-70
2023/11/24 17:40:27;;;;;;;5.83;1.93;;;;;;;4.34;100.00;99695.19;6161901;28;20324;-70
2023/11/24 17:43:48;;;;;;;4.10;2.00;;;;;;;4.49;100.00;99702.75;6151166;28;20813;-71
2023/11/24 17:47:12;;;;;;;3.53;2.37;;;;;;;4.35;100.00;99719.06;6165240;28;20267;-71
2023/11/24 17:50:33;;;;;;;3.33;1.63;;;;;;;4.48;100.00;99733.09;6169531;28;20237;-70
2023/11/24 17:53:54;;;;;;;3.20;1.83;;;;;;;4.61;100.00;99735.59;6167251;28;21741;-71
2023/11/24 17:57:15;;;;;;;7.47;2.10;;;;;;;4.66;100.00;99758.25;6140744;28;20234;-71
2023/11/24 18:00:39;;;;;;;2.07;1.90;;;;;;;4.68;100.00;99760.78;6165415;28;20563;-70